createdAt,value
2023-02-19T00:00:09.514Z,8.26
2023-02-19T00:02:47.931Z,8.39
2023-02-19T00:05:19.578Z,8.43
2023-02-19T00:07:51.193Z,8.13
2023-02-19T00:10:22.859Z,8.18
2023-02-19T00:12:54.461Z,9.03
2023-02-19T00:15:26.142Z,9.53
2023-02-19T00:17:57.790Z,9.69
2023-02-19T00:20:29.415Z,9.73
2023-02-19T00:23:01.129Z,10.31
2023-02-19T00:25:37.059Z,9.81
2023-02-19T00:28:08.663Z,10.92
2023-02-19T00:30:40.372Z,11.32
2023-02-19T00:33:11.972Z,10.35
2023-02-19T00:35:43.586Z,10.43
2023-02-19T00:38:15.199Z,10.29
2023-02-19T00:40:46.789Z,9.53
2023-02-19T00:43:19.468Z,10.47
2023-02-19T00:45:51.105Z,10.93
2023-02-19T00:48:22.757Z,11.41
2023-02-19T00:50:54.375Z,11.24
2023-02-19T00:53:26.213Z,12.23
2023-02-19T00:55:57.843Z,12.79
2023-02-19T00:58:29.594Z,12.63
2023-02-19T01:01:01.342Z,13.81
2023-02-19T01:03:37.433Z,13.74
2023-02-19T01:06:10.798Z,14.02
2023-02-19T01:08:43.198Z,13.46
2023-02-19T01:11:16.082Z,13.84
2023-02-19T01:13:47.936Z,13.39
2023-02-19T01:16:22.904Z,13.55
2023-02-19T01:18:54.640Z,13.38
2023-02-19T01:21:27.749Z,13.92
2023-02-19T01:23:59.530Z,13.40
2023-02-19T01:26:33.277Z,12.83
2023-02-19T01:29:04.897Z,13.14
2023-02-19T01:31:36.802Z,12.90
2023-02-19T01:34:11.126Z,12.60
2023-02-19T01:36:42.755Z,12.69
2023-02-19T01:39:14.443Z,12.99
2023-02-19T01:41:46.057Z,13.13
2023-02-19T01:44:17.600Z,13.32
2023-02-19T01:46:49.210Z,13.37
2023-02-19T01:49:29.263Z,12.83
2023-02-19T01:52:13.886Z,12.57
2023-02-19T01:54:49.709Z,12.20
2023-02-19T01:57:28.794Z,12.35
2023-02-19T02:00:15.774Z,12.89
2023-02-19T02:02:53.097Z,12.57
2023-02-19T02:05:31.205Z,12.21
2023-02-19T02:08:04.329Z,12.25
2023-02-19T02:10:36.332Z,11.95
2023-02-19T02:13:07.962Z,12.09
2023-02-19T02:15:51.964Z,11.64
2023-02-19T02:18:46.009Z,11.38
2023-02-19T02:21:46.739Z,11.96
2023-02-19T02:24:45.056Z,11.74
2023-02-19T02:27:28.252Z,11.53
2023-02-19T02:30:12.775Z,11.37
2023-02-19T02:32:53.625Z,11.76
2023-02-19T02:35:37.177Z,11.40
2023-02-19T02:38:13.520Z,12.26
2023-02-19T02:40:46.361Z,12.08
2023-02-19T02:43:18.797Z,11.53
2023-02-19T02:45:50.401Z,10.98
2023-02-19T02:48:45.805Z,11.34
2023-02-19T02:51:25.270Z,11.30
2023-02-19T02:54:12.167Z,11.82
2023-02-19T02:56:48.181Z,11.90
2023-02-19T02:59:25.076Z,11.75
2023-02-19T03:02:17.648Z,12.07
2023-02-19T03:04:52.429Z,14.66
2023-02-19T03:07:29.710Z,14.60
2023-02-19T03:10:07.107Z,13.86
2023-02-19T03:12:42.030Z,13.71
2023-02-19T03:15:17.257Z,13.35
2023-02-19T03:17:56.138Z,13.92
2023-02-19T03:20:31.633Z,13.82
2023-02-19T03:23:06.449Z,13.10
2023-02-19T03:25:39.878Z,13.54
2023-02-19T03:28:15.313Z,13.42
2023-02-19T03:30:53.593Z,13.54
2023-02-19T03:33:29.859Z,13.59
2023-02-19T03:36:07.717Z,13.34
2023-02-19T03:39:06.852Z,13.31
2023-02-19T03:42:02.610Z,12.51
2023-02-19T03:45:02.521Z,12.47
2023-02-19T03:47:58.106Z,12.57
2023-02-19T03:50:49.122Z,12.64
2023-02-19T03:53:37.922Z,12.25
2023-02-19T03:56:35.650Z,12.41
2023-02-19T03:59:17.281Z,11.95
2023-02-19T04:01:52.555Z,11.92
2023-02-19T04:04:37.639Z,11.86
2023-02-19T04:07:10.301Z,11.64
2023-02-19T04:09:49.314Z,11.49
2023-02-19T04:12:24.412Z,11.52
2023-02-19T04:15:05.593Z,11.87
2023-02-19T04:18:14.360Z,11.66
2023-02-19T04:20:48.609Z,11.76
2023-02-19T04:23:26.523Z,11.58
2023-02-19T04:26:01.198Z,10.94
2023-02-19T04:28:33.000Z,10.83
2023-02-19T04:31:04.765Z,10.55
2023-02-19T04:33:37.211Z,10.63
2023-02-19T04:36:10.606Z,10.59
2023-02-19T04:38:42.226Z,10.38
2023-02-19T04:41:13.820Z,10.30
2023-02-19T04:43:45.404Z,9.77
2023-02-19T04:46:17.227Z,9.46
2023-02-19T04:48:48.885Z,9.72
2023-02-19T04:51:20.601Z,9.79
2023-02-19T04:53:52.227Z,9.92
2023-02-19T04:56:24.307Z,10.41
2023-02-19T04:58:56.607Z,10.44
2023-02-19T05:01:28.560Z,11.39
2023-02-19T05:04:00.348Z,11.60
2023-02-19T05:06:31.940Z,11.61
2023-02-19T05:09:04.020Z,11.77
2023-02-19T05:11:35.662Z,11.80
2023-02-19T05:14:07.297Z,11.71
2023-02-19T05:16:38.902Z,10.53
2023-02-19T05:19:13.863Z,9.60
2023-02-19T05:21:45.488Z,9.72
2023-02-19T05:24:17.146Z,9.74
2023-02-19T05:26:48.741Z,9.82
2023-02-19T05:29:20.273Z,10.05
2023-02-19T05:31:51.991Z,9.83
2023-02-19T05:34:23.657Z,9.37
2023-02-19T05:36:55.346Z,9.93
2023-02-19T05:39:27.030Z,9.75
2023-02-19T05:41:58.646Z,9.78
2023-02-19T05:44:30.213Z,10.10
2023-02-19T05:47:01.853Z,10.92
2023-02-19T05:49:33.490Z,11.08
2023-02-19T05:52:05.380Z,11.01
2023-02-19T05:54:36.983Z,11.03
2023-02-19T05:57:08.542Z,11.32
2023-02-19T05:59:40.145Z,11.42
2023-02-19T06:02:11.845Z,11.22
2023-02-19T06:04:43.453Z,11.11
2023-02-19T06:07:15.017Z,11.14
2023-02-19T06:09:49.885Z,10.86
2023-02-19T06:12:21.478Z,10.69
2023-02-19T06:14:53.108Z,10.73
2023-02-19T06:17:24.746Z,11.11
2023-02-19T06:19:56.372Z,10.51
2023-02-19T06:22:28.144Z,10.88
2023-02-19T06:24:59.719Z,10.81
2023-02-19T06:27:31.388Z,10.36
2023-02-19T06:30:03.234Z,10.10
2023-02-19T06:32:34.987Z,10.03
2023-02-19T06:35:06.782Z,9.77
2023-02-19T06:37:38.415Z,9.66
2023-02-19T06:40:10.294Z,9.70
2023-02-19T06:42:41.997Z,9.21
2023-02-19T06:45:13.688Z,8.63
2023-02-19T06:47:45.245Z,9.17
2023-02-19T06:50:17.077Z,8.75
2023-02-19T06:52:48.673Z,8.87
2023-02-19T06:55:20.349Z,8.82
2023-02-19T06:57:52.005Z,8.70
2023-02-19T07:00:23.742Z,8.46
2023-02-19T07:02:55.280Z,9.06
2023-02-19T07:05:27.229Z,8.74
2023-02-19T07:07:58.838Z,9.27
2023-02-19T07:10:30.481Z,9.24
2023-02-19T07:13:02.107Z,8.55
2023-02-19T07:15:33.733Z,8.95
2023-02-19T07:18:05.523Z,9.14
2023-02-19T07:20:37.125Z,8.95
2023-02-19T07:23:09.414Z,8.39
2023-02-19T07:25:41.174Z,8.41
2023-02-19T07:28:12.840Z,8.26
2023-02-19T07:30:44.579Z,8.57
2023-02-19T07:33:16.324Z,8.54
2023-02-19T07:35:50.305Z,8.42
2023-02-19T07:38:24.035Z,8.62
2023-02-19T07:40:58.801Z,8.28
2023-02-19T07:43:34.017Z,8.40
2023-02-19T07:46:06.723Z,9.22
2023-02-19T07:48:40.118Z,8.29
2023-02-19T07:51:15.123Z,9.20
2023-02-19T07:53:47.823Z,8.79
2023-02-19T07:56:20.078Z,8.45
2023-02-19T07:58:51.700Z,8.87
2023-02-19T08:01:24.654Z,8.55
2023-02-19T08:03:56.247Z,8.26
2023-02-19T08:06:27.831Z,8.15
2023-02-19T08:08:59.475Z,8.55
2023-02-19T08:11:31.477Z,8.45
2023-02-19T08:14:03.125Z,8.27
2023-02-19T08:16:43.010Z,8.09
2023-02-19T08:19:15.084Z,8.26
2023-02-19T08:21:46.697Z,7.83
2023-02-19T08:24:18.253Z,9.07
2023-02-19T08:26:49.838Z,9.13
2023-02-19T08:29:21.489Z,9.48
2023-02-19T08:31:53.133Z,9.09
2023-02-19T08:34:24.748Z,9.13
2023-02-19T08:36:56.312Z,9.49
2023-02-19T08:39:27.910Z,9.09
2023-02-19T08:41:59.592Z,9.15
2023-02-19T08:44:32.713Z,9.05
2023-02-19T08:47:04.488Z,8.63
2023-02-19T08:49:36.072Z,8.42
2023-02-19T08:52:07.661Z,8.84
2023-02-19T08:54:39.203Z,8.43
2023-02-19T08:57:10.911Z,8.41
2023-02-19T08:59:42.484Z,8.93
2023-02-19T09:02:14.202Z,9.64
2023-02-19T09:04:45.878Z,9.07
2023-02-19T09:07:19.058Z,9.77
2023-02-19T09:09:50.595Z,9.59
2023-02-19T09:12:22.447Z,8.63
2023-02-19T09:14:54.012Z,8.51
2023-02-19T09:17:26.461Z,9.58
2023-02-19T09:19:58.040Z,8.69
2023-02-19T09:22:29.769Z,8.68
2023-02-19T09:25:01.755Z,8.42
2023-02-19T09:27:33.360Z,8.64
2023-02-19T09:30:05.317Z,8.37
2023-02-19T09:32:37.094Z,7.69
2023-02-19T09:35:08.683Z,7.94
2023-02-19T09:37:40.301Z,7.40
2023-02-19T09:40:12.791Z,7.00
2023-02-19T09:42:44.468Z,6.78
2023-02-19T09:45:24.231Z,6.65
2023-02-19T09:47:58.612Z,6.57
2023-02-19T09:50:39.153Z,6.29
2023-02-19T09:53:26.381Z,5.92
2023-02-19T09:55:59.763Z,5.91
2023-02-19T09:58:35.359Z,5.63
2023-02-19T10:01:11.204Z,5.51
2023-02-19T10:03:49.014Z,6.18
2023-02-19T10:06:23.646Z,6.70
2023-02-19T10:09:23.644Z,6.10
2023-02-19T10:11:58.141Z,6.15
2023-02-19T10:14:51.128Z,6.65
2023-02-19T10:17:26.807Z,6.38
2023-02-19T10:19:58.502Z,6.40
2023-02-19T10:22:35.060Z,6.53
2023-02-19T10:25:07.626Z,6.49
2023-02-19T10:27:39.314Z,6.72
2023-02-19T10:30:22.447Z,6.84
2023-02-19T10:33:04.180Z,6.42
2023-02-19T10:35:51.086Z,6.92
2023-02-19T10:38:39.139Z,6.90
2023-02-19T10:41:30.782Z,6.84
2023-02-19T10:44:14.046Z,6.62
2023-02-19T10:46:49.752Z,6.56
2023-02-19T10:49:27.432Z,6.18
2023-02-19T10:52:10.467Z,6.94
2023-02-19T10:54:42.020Z,6.43
2023-02-19T10:57:19.511Z,6.39
2023-02-19T11:00:00.187Z,6.17
2023-02-19T11:02:31.883Z,6.43
2023-02-19T11:05:12.002Z,6.68
2023-02-19T11:07:56.335Z,6.57
2023-02-19T11:10:33.534Z,6.54
2023-02-19T11:13:13.593Z,6.50
2023-02-19T11:15:53.300Z,6.23
2023-02-19T11:18:31.766Z,6.69
2023-02-19T11:21:07.853Z,6.05
2023-02-19T11:23:47.090Z,6.27
2023-02-19T11:26:24.031Z,5.92
2023-02-19T11:29:01.029Z,6.51
2023-02-19T11:31:33.774Z,6.45
2023-02-19T11:34:14.354Z,6.34
2023-02-19T11:36:46.033Z,5.47
2023-02-19T11:39:17.602Z,5.34
2023-02-19T11:42:04.043Z,5.65
2023-02-19T11:45:01.839Z,5.95
2023-02-19T11:47:45.835Z,6.38
2023-02-19T11:50:53.429Z,6.13
2023-02-19T11:53:31.815Z,6.33
2023-02-19T11:56:18.173Z,5.78
2023-02-19T11:59:01.435Z,5.82
2023-02-19T12:01:54.251Z,5.12
2023-02-19T12:05:01.261Z,3.54
2023-02-19T12:07:51.145Z,4.36
2023-02-19T12:10:38.715Z,4.20
2023-02-19T12:13:13.407Z,5.01
2023-02-19T12:16:14.420Z,4.85
2023-02-19T12:19:37.247Z,4.85
2023-02-19T12:22:39.638Z,5.97
2023-02-19T12:26:02.570Z,5.81
2023-02-19T12:28:58.651Z,5.53
2023-02-19T12:31:45.087Z,5.75
2023-02-19T12:34:35.132Z,5.06
2023-02-19T12:37:43.764Z,5.49
2023-02-19T12:40:15.484Z,4.91
2023-02-19T12:43:11.022Z,4.93
2023-02-19T12:46:01.801Z,5.85
2023-02-19T12:48:47.330Z,5.31
2023-02-19T12:51:25.029Z,5.57
2023-02-19T12:54:43.313Z,5.50
2023-02-19T12:57:26.964Z,5.70
2023-02-19T13:00:18.504Z,5.68
2023-02-19T13:03:19.013Z,5.50
2023-02-19T13:06:27.259Z,5.52
2023-02-19T13:09:06.717Z,5.00
2023-02-19T13:11:48.541Z,5.89
2023-02-19T13:14:25.962Z,5.69
2023-02-19T13:17:02.790Z,4.82
2023-02-19T13:19:36.508Z,6.13
2023-02-19T13:22:46.094Z,5.74
2023-02-19T13:25:20.669Z,5.68
2023-02-19T13:28:13.050Z,6.61
2023-02-19T13:30:56.936Z,6.67
2023-02-19T13:33:28.527Z,7.12
2023-02-19T13:36:10.480Z,7.63
2023-02-19T13:38:47.220Z,8.08
2023-02-19T13:41:29.874Z,7.71
2023-02-19T13:44:05.773Z,7.51
2023-02-19T13:46:46.113Z,7.05
2023-02-19T13:49:29.541Z,6.90
2023-02-19T13:52:04.170Z,7.26
2023-02-19T13:54:36.527Z,7.50
2023-02-19T13:57:31.167Z,7.22
2023-02-19T14:00:41.346Z,7.14
2023-02-19T14:03:28.978Z,7.51
2023-02-19T14:06:05.081Z,8.21
2023-02-19T14:08:57.801Z,7.45
2023-02-19T14:11:41.358Z,8.33
2023-02-19T14:14:34.069Z,8.33
2023-02-19T14:17:08.525Z,8.25
2023-02-19T14:19:44.356Z,7.98
2023-02-19T14:22:46.849Z,7.89
2023-02-19T14:25:27.488Z,7.83
2023-02-19T14:28:11.165Z,7.44
2023-02-19T14:30:55.886Z,7.52
2023-02-19T14:33:35.064Z,7.82
2023-02-19T14:36:16.935Z,7.91
2023-02-19T14:38:52.889Z,7.66
2023-02-19T14:41:27.388Z,7.28
2023-02-19T14:44:02.168Z,7.77
2023-02-19T14:46:43.026Z,6.98
2023-02-19T14:49:41.916Z,7.19
2023-02-19T14:52:44.400Z,6.63
2023-02-19T14:55:35.767Z,6.10
2023-02-19T14:58:18.537Z,6.06
2023-02-19T15:00:50.120Z,5.25
2023-02-19T15:03:25.840Z,5.22
2023-02-19T15:06:06.087Z,5.25
2023-02-19T15:08:46.648Z,5.24
2023-02-19T15:11:25.557Z,4.79
2023-02-19T15:14:08.563Z,5.08
2023-02-19T15:16:40.401Z,6.01
2023-02-19T15:19:17.158Z,6.31
2023-02-19T15:21:49.416Z,6.56
2023-02-19T15:24:21.286Z,6.41
2023-02-19T15:26:55.112Z,4.73
2023-02-19T15:29:27.746Z,5.65
2023-02-19T15:32:01.202Z,6.01
2023-02-19T15:34:33.226Z,6.20
2023-02-19T15:37:08.956Z,5.98
2023-02-19T15:39:53.070Z,5.55
2023-02-19T15:42:29.486Z,5.64
2023-02-19T15:45:16.273Z,5.76
2023-02-19T15:48:08.233Z,5.57
2023-02-19T15:50:47.591Z,5.67
2023-02-19T15:53:24.429Z,5.60
2023-02-19T15:56:33.472Z,5.36
2023-02-19T15:59:34.017Z,5.30
2023-02-19T16:02:13.485Z,5.39
2023-02-19T16:04:46.037Z,4.87
2023-02-19T16:07:26.968Z,3.45
2023-02-19T16:10:18.621Z,2.93
2023-02-19T16:12:58.592Z,3.25
2023-02-19T16:15:32.226Z,3.31
2023-02-19T16:18:04.823Z,3.20
2023-02-19T16:20:36.539Z,3.08
2023-02-19T16:23:18.444Z,3.06
2023-02-19T16:25:59.220Z,3.32
2023-02-19T16:28:40.273Z,3.50
2023-02-19T16:31:14.263Z,4.44
2023-02-19T16:33:48.699Z,4.58
2023-02-19T16:36:29.414Z,4.05
2023-02-19T16:39:07.180Z,4.39
2023-02-19T16:41:45.041Z,3.59
2023-02-19T16:44:27.591Z,2.95
2023-02-19T16:47:12.581Z,2.13
2023-02-19T16:49:44.500Z,1.22
2023-02-19T16:52:16.502Z,1.07
2023-02-19T16:54:49.336Z,1.02
2023-02-19T16:57:21.383Z,0.87
2023-02-19T16:59:53.224Z,0.95
2023-02-19T17:02:25.924Z,1.08
2023-02-19T17:04:57.642Z,1.03
2023-02-19T17:07:29.477Z,1.05
2023-02-19T17:10:01.075Z,1.04
2023-02-19T17:12:33.193Z,1.27
2023-02-19T17:15:05.051Z,1.34
2023-02-19T17:17:36.624Z,1.25
2023-02-19T17:20:17.348Z,1.11
2023-02-19T17:22:48.962Z,1.31
2023-02-19T17:25:20.985Z,1.15
2023-02-19T17:27:52.571Z,1.10
2023-02-19T17:30:29.704Z,1.11
2023-02-19T17:33:01.741Z,1.18
2023-02-19T17:35:33.368Z,1.18
2023-02-19T17:38:04.969Z,1.14
2023-02-19T17:40:36.786Z,1.03
2023-02-19T17:43:08.558Z,1.15
2023-02-19T17:45:40.316Z,1.15
2023-02-19T17:48:14.142Z,1.12
2023-02-19T17:50:45.761Z,1.30
2023-02-19T17:53:17.330Z,1.51
2023-02-19T17:55:49.026Z,1.40
2023-02-19T17:58:20.618Z,1.33
2023-02-19T18:00:52.535Z,1.09
2023-02-19T18:03:24.654Z,1.23
2023-02-19T18:05:56.946Z,1.19
2023-02-19T18:08:28.857Z,1.23
2023-02-19T18:11:00.445Z,1.32
2023-02-19T18:13:32.053Z,1.20
2023-02-19T18:16:05.663Z,1.37
2023-02-19T18:18:37.662Z,1.29
2023-02-19T18:21:10.842Z,1.52
2023-02-19T18:23:43.269Z,1.35
2023-02-19T18:26:20.035Z,3.77
2023-02-19T18:28:51.678Z,1.68
2023-02-19T18:31:23.359Z,2.03
2023-02-19T18:33:55.130Z,1.07
2023-02-19T18:36:26.725Z,1.04
2023-02-19T18:38:58.300Z,1.03
2023-02-19T18:41:30.150Z,1.12
2023-02-19T18:44:01.907Z,1.22
2023-02-19T18:46:33.831Z,1.00
2023-02-19T18:49:05.509Z,0.91
2023-02-19T18:51:37.098Z,0.92
2023-02-19T18:54:08.797Z,1.12
2023-02-19T18:56:44.798Z,1.18
2023-02-19T18:59:16.885Z,1.15
2023-02-19T19:01:49.210Z,1.02
2023-02-19T19:04:21.082Z,1.23
2023-02-19T19:06:53.007Z,1.36
2023-02-19T19:09:24.683Z,1.40
2023-02-19T19:11:56.355Z,1.34
2023-02-19T19:14:28.095Z,1.32
2023-02-19T19:16:59.952Z,1.29
2023-02-19T19:19:31.667Z,1.67
2023-02-19T19:22:06.260Z,1.44
2023-02-19T19:24:38.223Z,1.54
2023-02-19T19:27:09.951Z,1.69
2023-02-19T19:29:41.690Z,1.60
2023-02-19T19:32:15.402Z,1.84
2023-02-19T19:34:47.096Z,1.79
2023-02-19T19:37:18.815Z,1.82
2023-02-19T19:39:50.944Z,1.89
2023-02-19T19:42:31.516Z,1.93
2023-02-19T19:45:04.038Z,1.91
2023-02-19T19:47:35.760Z,1.73
2023-02-19T19:50:07.607Z,2.23
2023-02-19T19:52:39.293Z,2.00
2023-02-19T19:55:13.141Z,2.08
2023-02-19T19:57:48.559Z,2.23
2023-02-19T20:00:20.665Z,2.50
2023-02-19T20:02:52.359Z,2.50
2023-02-19T20:05:24.086Z,2.61
2023-02-19T20:07:55.698Z,2.84
2023-02-19T20:10:27.546Z,2.89
2023-02-19T20:13:02.468Z,2.55
2023-02-19T20:15:34.208Z,2.15
2023-02-19T20:18:05.849Z,2.03
2023-02-19T20:20:37.874Z,1.92
2023-02-19T20:23:09.583Z,2.00
2023-02-19T20:25:41.395Z,2.13
2023-02-19T20:28:13.103Z,2.31
2023-02-19T20:30:44.831Z,2.54
2023-02-19T20:33:16.647Z,3.13
2023-02-19T20:35:48.285Z,3.20
2023-02-19T20:38:19.987Z,2.56
2023-02-19T20:40:51.605Z,2.43
2023-02-19T20:43:23.198Z,2.35
2023-02-19T20:45:54.823Z,2.52
2023-02-19T20:48:26.422Z,2.46
2023-02-19T20:50:58.042Z,2.62
2023-02-19T20:53:30.818Z,2.39
2023-02-19T20:56:02.488Z,2.61
2023-02-19T20:58:34.101Z,2.23
2023-02-19T21:01:05.778Z,2.43
2023-02-19T21:03:37.442Z,2.46
2023-02-19T21:06:08.995Z,2.48
2023-02-19T21:08:40.639Z,2.69
2023-02-19T21:11:12.268Z,2.63
2023-02-19T21:13:43.963Z,2.45
2023-02-19T21:16:15.946Z,2.79
2023-02-19T21:18:47.596Z,2.77
2023-02-19T21:21:21.077Z,2.97
2023-02-19T21:23:53.830Z,2.83
2023-02-19T21:26:33.499Z,2.74
2023-02-19T21:29:07.130Z,2.76
2023-02-19T21:31:42.621Z,2.95
2023-02-19T21:34:16.855Z,2.80
2023-02-19T21:36:48.797Z,2.79
2023-02-19T21:39:23.016Z,2.77
2023-02-19T21:41:54.644Z,2.56
2023-02-19T21:44:26.274Z,2.82
2023-02-19T21:46:57.909Z,3.11
2023-02-19T21:49:29.511Z,2.98
2023-02-19T21:52:01.149Z,2.74
2023-02-19T21:54:32.789Z,2.44
2023-02-19T21:57:04.433Z,2.70
2023-02-19T21:59:36.094Z,2.41
2023-02-19T22:02:08.851Z,2.49
2023-02-19T22:04:40.550Z,2.34
2023-02-19T22:07:12.697Z,2.75
2023-02-19T22:09:44.282Z,2.55
2023-02-19T22:12:16.704Z,2.74
2023-02-19T22:14:48.314Z,2.67
2023-02-19T22:17:20.465Z,2.77
2023-02-19T22:19:52.205Z,2.54
2023-02-19T22:22:23.799Z,2.72
2023-02-19T22:24:55.397Z,2.90
2023-02-19T22:27:28.666Z,2.85
2023-02-19T22:30:00.946Z,2.76
2023-02-19T22:32:32.528Z,3.13
2023-02-19T22:35:04.218Z,2.85
2023-02-19T22:37:35.861Z,3.24
2023-02-19T22:40:07.946Z,3.25
2023-02-19T22:42:39.628Z,3.48
2023-02-19T22:45:12.017Z,3.40
2023-02-19T22:47:43.714Z,3.43
2023-02-19T22:50:20.409Z,3.43
2023-02-19T22:52:52.207Z,3.59
2023-02-19T22:55:23.753Z,3.43
2023-02-19T22:57:55.315Z,3.28
2023-02-19T23:00:26.909Z,3.38
2023-02-19T23:02:59.632Z,3.36
2023-02-19T23:05:31.248Z,3.03
2023-02-19T23:08:02.947Z,3.18
2023-02-19T23:10:34.505Z,2.93
2023-02-19T23:13:06.212Z,2.84
2023-02-19T23:15:37.845Z,2.68
2023-02-19T23:18:09.442Z,2.73
2023-02-19T23:20:41.340Z,2.52
2023-02-19T23:23:12.909Z,2.66
2023-02-19T23:25:44.531Z,2.55
2023-02-19T23:28:16.154Z,2.67
2023-02-19T23:30:47.906Z,2.89
2023-02-19T23:33:19.497Z,2.77
2023-02-19T23:35:51.305Z,3.10
2023-02-19T23:38:23.058Z,3.11
2023-02-19T23:40:54.676Z,3.16
2023-02-19T23:43:26.439Z,2.80
2023-02-19T23:45:58.046Z,2.86
2023-02-19T23:48:30.161Z,2.85
2023-02-19T23:51:01.782Z,2.64
2023-02-19T23:53:33.393Z,2.98
2023-02-19T23:56:05.682Z,2.70
2023-02-19T23:58:37.341Z,2.72
